createdAt,value
2022-10-24T00:02:49.761Z,78.41
2022-10-24T00:07:01.623Z,78.36
2022-10-24T00:11:14.655Z,78.42
2022-10-24T00:15:22.985Z,78.83
2022-10-24T00:19:31.611Z,78.74
2022-10-24T00:23:40.057Z,79.12
2022-10-24T00:27:47.624Z,79.44
2022-10-24T00:31:55.850Z,79.41
2022-10-24T00:36:03.464Z,79.62
2022-10-24T00:40:13.499Z,79.80
2022-10-24T00:44:24.388Z,79.70
2022-10-24T00:48:35.990Z,80.03
2022-10-24T00:52:47.505Z,80.20
2022-10-24T00:57:00.865Z,80.30
2022-10-24T01:01:09.631Z,80.65
2022-10-24T01:05:19.352Z,80.66
2022-10-24T01:09:50.896Z,80.48
2022-10-24T01:14:02.020Z,80.25
2022-10-24T01:18:14.270Z,80.30
2022-10-24T01:22:25.061Z,80.31
2022-10-24T01:26:47.256Z,79.98
2022-10-24T01:31:01.107Z,79.90
2022-10-24T01:35:16.974Z,80.18
2022-10-24T01:39:25.333Z,80.00
2022-10-24T01:43:36.394Z,80.01
2022-10-24T01:47:48.119Z,80.10
2022-10-24T01:51:58.592Z,80.18
2022-10-24T01:56:07.483Z,80.07
2022-10-24T02:00:22.687Z,80.15
2022-10-24T02:04:33.696Z,80.17
2022-10-24T02:08:46.151Z,79.90
2022-10-24T02:12:57.313Z,79.96
2022-10-24T02:17:05.673Z,79.69
2022-10-24T02:21:25.612Z,79.55
2022-10-24T02:25:38.196Z,79.27
2022-10-24T02:29:52.476Z,78.85
2022-10-24T02:34:00.805Z,78.28
2022-10-24T02:38:16.402Z,78.04
2022-10-24T02:42:25.748Z,77.83
2022-10-24T02:46:33.628Z,77.70
2022-10-24T02:50:43.262Z,77.26
2022-10-24T02:54:51.563Z,76.99
2022-10-24T02:58:59.668Z,77.03
2022-10-24T03:03:07.626Z,76.65
2022-10-24T03:07:15.161Z,76.79
2022-10-24T03:11:23.121Z,76.69
2022-10-24T03:15:30.923Z,76.62
2022-10-24T03:19:39.166Z,76.63
2022-10-24T03:23:47.240Z,76.58
2022-10-24T03:27:55.054Z,76.59
2022-10-24T03:32:03.065Z,76.53
2022-10-24T03:36:11.290Z,76.74
2022-10-24T03:40:18.926Z,76.87
2022-10-24T03:44:27.545Z,76.69
2022-10-24T03:48:35.391Z,77.01
2022-10-24T03:52:45.505Z,77.08
2022-10-24T03:56:53.675Z,76.84
2022-10-24T04:01:01.628Z,77.14
2022-10-24T04:05:11.133Z,77.04
2022-10-24T04:09:19.247Z,76.95
2022-10-24T04:13:27.664Z,77.11
2022-10-24T04:17:35.620Z,76.86
2022-10-24T04:21:44.096Z,76.88
2022-10-24T04:25:52.344Z,76.93
2022-10-24T04:30:00.197Z,76.90
2022-10-24T04:34:08.165Z,76.73
2022-10-24T04:38:15.764Z,76.96
2022-10-24T04:42:26.217Z,77.10
2022-10-24T04:46:34.500Z,77.20
2022-10-24T04:50:44.611Z,77.01
2022-10-24T04:54:52.300Z,77.01
2022-10-24T04:59:00.208Z,76.96
2022-10-24T05:03:07.910Z,76.96
2022-10-24T05:07:16.150Z,76.92
2022-10-24T05:11:24.144Z,76.65
2022-10-24T05:15:32.200Z,76.84
2022-10-24T05:19:40.247Z,76.81
2022-10-24T05:23:48.373Z,77.00
2022-10-24T05:27:57.119Z,76.94
2022-10-24T05:32:05.013Z,77.03
2022-10-24T05:36:13.760Z,77.10
2022-10-24T05:40:21.593Z,76.98
2022-10-24T05:44:29.457Z,77.04
2022-10-24T05:48:37.444Z,77.09
2022-10-24T05:52:47.114Z,77.24
2022-10-24T05:56:56.175Z,77.43
2022-10-24T06:01:05.053Z,77.64
2022-10-24T06:05:14.236Z,77.84
2022-10-24T06:09:22.555Z,78.35
2022-10-24T06:13:35.183Z,78.64
2022-10-24T06:17:44.862Z,78.36
2022-10-24T06:21:52.614Z,78.50
2022-10-24T06:26:01.381Z,78.45
2022-10-24T06:30:12.257Z,78.53
2022-10-24T06:38:33.944Z,78.45
2022-10-24T06:42:43.340Z,78.25
2022-10-24T06:46:51.080Z,77.99
2022-10-24T06:51:00.416Z,78.11
2022-10-24T06:55:09.770Z,78.00
2022-10-24T06:59:18.908Z,78.03
2022-10-24T07:03:27.886Z,77.95
2022-10-24T07:07:35.828Z,78.03
2022-10-24T07:11:43.378Z,78.08
2022-10-24T07:15:55.172Z,78.03
2022-10-24T07:20:04.382Z,77.92
2022-10-24T07:24:14.803Z,77.83
2022-10-24T07:28:23.610Z,77.75
2022-10-24T07:32:30.922Z,77.65
2022-10-24T07:36:41.543Z,77.59
2022-10-24T07:40:54.432Z,77.38
2022-10-24T07:45:02.819Z,77.22
2022-10-24T07:49:11.502Z,76.79
2022-10-24T07:53:19.375Z,76.69
2022-10-24T07:57:27.639Z,76.41
2022-10-24T08:01:35.798Z,76.31
2022-10-24T08:05:44.093Z,76.12
2022-10-24T08:09:52.353Z,75.88
2022-10-24T08:14:02.788Z,75.77
2022-10-24T08:18:10.813Z,75.70
2022-10-24T08:22:18.991Z,75.55
2022-10-24T08:26:28.390Z,75.52
2022-10-24T08:30:36.110Z,75.34
2022-10-24T08:34:44.039Z,75.03
2022-10-24T08:38:51.929Z,74.88
2022-10-24T08:42:59.451Z,74.75
2022-10-24T08:47:10.564Z,74.69
2022-10-24T08:51:31.055Z,74.65
2022-10-24T08:55:50.236Z,74.53
2022-10-24T09:00:01.379Z,74.31
2022-10-24T09:04:13.256Z,74.20
2022-10-24T09:08:26.415Z,73.82
2022-10-24T09:12:40.433Z,73.69
2022-10-24T09:16:50.132Z,73.63
2022-10-24T09:20:58.127Z,73.42
2022-10-24T09:25:08.244Z,72.72
2022-10-24T09:29:18.535Z,72.55
2022-10-24T09:33:30.521Z,72.34
2022-10-24T09:37:47.120Z,71.74
2022-10-24T09:41:55.640Z,71.29
2022-10-24T09:46:09.043Z,70.84
2022-10-24T09:50:24.799Z,70.44
2022-10-24T09:54:35.386Z,70.32
2022-10-24T09:58:43.969Z,70.32
2022-10-24T10:03:03.109Z,70.04
2022-10-24T10:07:14.627Z,69.95
2022-10-24T10:11:30.904Z,69.57
2022-10-24T10:15:41.460Z,69.18
2022-10-24T10:19:49.555Z,68.91
2022-10-24T10:24:02.417Z,68.41
2022-10-24T10:28:23.360Z,68.34
2022-10-24T10:32:35.004Z,68.50
2022-10-24T10:36:48.270Z,67.81
2022-10-24T10:41:00.849Z,67.72
2022-10-24T10:45:19.638Z,67.73
2022-10-24T10:49:31.631Z,68.14
2022-10-24T10:53:43.886Z,68.38
2022-10-24T10:57:55.484Z,68.09
2022-10-24T11:02:10.386Z,67.52
2022-10-24T11:06:28.564Z,67.14
2022-10-24T11:10:39.606Z,66.99
2022-10-24T11:14:50.140Z,66.93
2022-10-24T11:19:01.314Z,67.03
2022-10-24T11:23:15.599Z,66.55
2022-10-24T11:27:27.837Z,66.20
2022-10-24T11:31:38.850Z,65.97
2022-10-24T11:36:01.662Z,66.13
2022-10-24T11:40:14.790Z,66.28
2022-10-24T11:44:38.115Z,66.22
2022-10-24T11:53:06.584Z,65.50
2022-10-24T11:57:17.130Z,65.34
2022-10-24T12:01:50.469Z,65.19
2022-10-24T12:06:21.737Z,64.95
2022-10-24T12:10:42.212Z,64.70
2022-10-24T12:15:00.921Z,64.42
2022-10-24T12:19:12.276Z,64.35
2022-10-24T12:23:24.904Z,64.47
2022-10-24T12:27:36.307Z,64.38
2022-10-24T12:31:44.193Z,64.26
2022-10-24T12:35:56.689Z,63.94
2022-10-24T12:40:41.802Z,64.19
2022-10-24T12:44:51.443Z,64.17
2022-10-24T12:49:18.385Z,63.85
2022-10-24T12:53:43.972Z,63.62
2022-10-24T12:57:51.793Z,63.24
2022-10-24T13:02:22.547Z,63.35
2022-10-24T13:06:34.335Z,63.59
2022-10-24T13:10:47.676Z,63.85
2022-10-24T13:15:18.838Z,64.05
2022-10-24T13:19:27.341Z,64.32
2022-10-24T13:23:35.974Z,64.65
2022-10-24T13:27:43.973Z,64.76
2022-10-24T13:31:56.306Z,65.06
2022-10-24T13:36:16.398Z,65.15
2022-10-24T13:40:30.639Z,65.46
2022-10-24T13:44:46.263Z,65.58
2022-10-24T13:48:54.428Z,65.93
2022-10-24T13:53:04.894Z,65.87
2022-10-24T13:57:30.909Z,66.05
2022-10-24T14:05:51.701Z,66.20
2022-10-24T14:10:02.066Z,66.23
2022-10-24T14:14:23.939Z,66.15
2022-10-24T14:18:33.243Z,66.25
2022-10-24T14:22:42.853Z,66.57
2022-10-24T14:26:53.512Z,66.51
2022-10-24T14:31:03.119Z,66.57
2022-10-24T14:35:15.603Z,66.49
2022-10-24T14:39:25.201Z,66.26
2022-10-24T14:43:34.012Z,66.42
2022-10-24T14:47:46.041Z,66.44
2022-10-24T14:51:56.427Z,66.54
2022-10-24T14:56:04.106Z,66.78
2022-10-24T15:00:23.807Z,66.69
2022-10-24T15:04:40.400Z,66.83
2022-10-24T15:08:51.331Z,67.04
2022-10-24T15:13:05.051Z,67.07
2022-10-24T15:17:32.491Z,67.15
2022-10-24T15:21:44.863Z,67.48
2022-10-24T15:26:06.052Z,67.69
2022-10-24T15:30:17.609Z,67.71
2022-10-24T15:34:28.193Z,67.74
2022-10-24T15:38:40.486Z,67.85
2022-10-24T15:42:51.530Z,68.08
2022-10-24T15:46:59.753Z,68.38
2022-10-24T15:51:07.968Z,69.28
2022-10-24T15:55:20.004Z,69.91
2022-10-24T15:59:27.807Z,69.96
2022-10-24T16:03:37.480Z,70.24
2022-10-24T16:07:45.925Z,70.41
2022-10-24T16:11:54.812Z,70.79
2022-10-24T16:16:02.898Z,71.23
2022-10-24T16:20:12.151Z,71.37
2022-10-24T16:24:19.938Z,71.23
2022-10-24T16:28:29.228Z,71.64
2022-10-24T16:32:37.513Z,71.85
2022-10-24T16:36:45.914Z,71.89
2022-10-24T16:40:56.016Z,71.75
2022-10-24T16:45:05.578Z,71.71
2022-10-24T16:49:13.439Z,71.72
2022-10-24T16:53:21.895Z,71.54
2022-10-24T16:57:37.053Z,71.55
2022-10-24T17:01:45.179Z,71.48
2022-10-24T17:05:53.036Z,71.21
2022-10-24T17:10:01.225Z,71.11
2022-10-24T17:14:10.752Z,70.87
2022-10-24T17:18:20.400Z,71.29
2022-10-24T17:22:28.460Z,71.44
2022-10-24T17:27:00.885Z,71.28
2022-10-24T17:31:09.501Z,72.07
2022-10-24T17:35:20.849Z,71.92
2022-10-24T17:39:32.442Z,72.02
2022-10-24T17:43:41.989Z,72.44
2022-10-24T17:47:50.193Z,72.72
2022-10-24T17:51:58.338Z,72.81
2022-10-24T17:56:07.006Z,72.77
2022-10-24T18:00:16.936Z,72.69
2022-10-24T18:04:24.436Z,72.56
2022-10-24T18:08:32.776Z,72.15
2022-10-24T18:12:42.014Z,72.10
2022-10-24T18:16:50.187Z,71.96
2022-10-24T18:21:08.939Z,71.82
2022-10-24T18:25:21.774Z,71.69
2022-10-24T18:29:31.382Z,71.83
2022-10-24T18:33:42.213Z,71.72
2022-10-24T18:37:49.985Z,71.66
2022-10-24T18:42:03.040Z,71.86
2022-10-24T18:46:14.083Z,71.98
2022-10-24T18:50:24.223Z,72.06
2022-10-24T18:54:33.011Z,72.28
2022-10-24T18:58:41.685Z,72.26
2022-10-24T19:03:05.587Z,72.38
2022-10-24T19:07:13.662Z,72.36
2022-10-24T19:11:24.572Z,72.41
2022-10-24T19:15:33.211Z,72.25
2022-10-24T19:19:41.798Z,72.39
2022-10-24T19:23:49.609Z,72.47
2022-10-24T19:27:57.820Z,72.58
2022-10-24T19:32:09.878Z,72.68
2022-10-24T19:36:19.364Z,72.78
2022-10-24T19:40:27.777Z,73.03
2022-10-24T19:44:35.571Z,73.04
2022-10-24T19:48:45.767Z,73.11
2022-10-24T19:52:58.869Z,73.28
2022-10-24T19:57:09.847Z,73.36
2022-10-24T20:01:26.087Z,73.43
2022-10-24T20:05:36.551Z,73.41
2022-10-24T20:09:50.529Z,73.61
2022-10-24T20:13:58.768Z,73.60
2022-10-24T20:18:06.433Z,73.63
2022-10-24T20:22:14.449Z,73.59
2022-10-24T20:26:24.060Z,73.64
2022-10-24T20:30:32.416Z,73.66
2022-10-24T20:34:40.230Z,73.67
2022-10-24T20:38:56.704Z,73.73
2022-10-24T20:43:07.334Z,73.76
2022-10-24T20:47:15.185Z,73.84
2022-10-24T20:51:24.165Z,73.71
2022-10-24T20:55:43.860Z,73.69
2022-10-24T20:59:52.841Z,73.78
2022-10-24T21:04:01.532Z,73.51
2022-10-24T21:08:09.699Z,73.35
2022-10-24T21:12:17.615Z,73.26
2022-10-24T21:16:26.854Z,73.41
2022-10-24T21:20:35.014Z,73.52
2022-10-24T21:24:42.902Z,73.66
2022-10-24T21:28:54.016Z,73.69
2022-10-24T21:33:10.980Z,73.72
2022-10-24T21:37:18.660Z,73.66
2022-10-24T21:41:26.846Z,73.76
2022-10-24T21:45:35.625Z,73.70
2022-10-24T21:49:44.000Z,73.71
2022-10-24T21:53:53.242Z,73.84
2022-10-24T21:58:01.365Z,73.81
2022-10-24T22:02:09.977Z,73.89
2022-10-24T22:06:19.237Z,73.99
2022-10-24T22:10:27.052Z,74.03
2022-10-24T22:14:36.280Z,74.09
2022-10-24T22:18:45.094Z,74.13
2022-10-24T22:22:53.171Z,74.28
2022-10-24T22:27:00.857Z,74.34
2022-10-24T22:31:10.666Z,74.47
2022-10-24T22:35:20.719Z,74.53
2022-10-24T22:39:31.016Z,74.50
2022-10-24T22:43:40.062Z,74.48
2022-10-24T22:58:58.264Z,74.74
2022-10-24T23:03:14.137Z,74.82
2022-10-24T23:07:27.636Z,74.93
2022-10-24T23:11:37.278Z,74.84
2022-10-24T23:15:45.761Z,74.90
2022-10-24T23:19:55.638Z,74.85
2022-10-24T23:24:04.481Z,74.92
2022-10-24T23:28:19.843Z,75.03
2022-10-24T23:32:30.155Z,75.21
2022-10-24T23:36:38.929Z,75.25
2022-10-24T23:40:48.111Z,75.47
2022-10-24T23:44:56.804Z,75.42
2022-10-24T23:49:22.368Z,75.46
2022-10-24T23:53:36.515Z,75.80
2022-10-24T23:57:45.278Z,75.74
